Time;durP1;ratioP1;P1;durP2;ratioP2;P2;SDS_P1;SDS_P2;PMS_P1;PMS_P2;Temp;Humidity;BMP_temperature;BMP_pressure;BME280_temperature;BME280_humidity;BME280_pressure;Samples;Min_cycle;Max_cycle;Signal;HPM_P1;HPM_P2
2021/11/15 00:00:54;;;;;;;32.90;21.87;;;;;;;6.13;82.24;100342.78;5090573;28;20207;-81
2021/11/15 00:03:22;;;;;;;33.73;21.57;;;;;;;6.08;82.65;100339.81;5077285;28;20561;-83
2021/11/15 00:05:54;;;;;;;34.23;21.77;;;;;;;6.14;82.25;100350.59;5109790;28;20208;-81
2021/11/15 00:08:22;;;;;;;32.17;21.53;;;;;;;6.07;82.34;100338.97;5092023;28;20269;-82
2021/11/15 00:10:49;;;;;;;33.87;21.23;;;;;;;6.11;82.06;100337.63;5109359;28;20219;-81
2021/11/15 00:13:20;;;;;;;33.37;21.40;;;;;;;6.10;81.61;100335.16;5110390;28;20212;-82
2021/11/15 00:15:49;;;;;;;35.70;22.17;;;;;;;6.07;82.50;100335.47;5106483;28;20257;-82
2021/11/15 00:18:16;;;;;;;34.47;22.47;;;;;;;6.11;82.38;100345.59;5108275;28;20220;-83
2021/11/15 00:20:44;;;;;;;35.77;21.67;;;;;;;6.07;81.80;100335.47;5090681;28;20739;-82
2021/11/15 00:23:11;;;;;;;33.60;21.00;;;;;;;6.11;82.29;100336.81;5089581;28;20255;-81
2021/11/15 00:25:38;;;;;;;35.63;21.83;;;;;;;5.99;82.64;100323.06;5108104;28;20254;-83
2021/11/15 00:28:05;;;;;;;36.00;22.53;;;;;;;6.05;82.34;100329.53;5104921;28;20220;-81
2021/11/15 00:30:34;;;;;;;36.70;22.30;;;;;;;6.12;81.94;100333.13;5108179;28;20249;-82
2021/11/15 00:33:02;;;;;;;36.23;22.17;;;;;;;6.04;81.99;100322.53;5108280;28;20302;-82
2021/11/15 00:35:31;;;;;;;33.87;22.63;;;;;;;6.05;82.09;100327.69;5108621;28;20224;-84
2021/11/15 00:38:04;;;;;;;33.80;21.30;;;;;;;6.06;82.14;100332.03;5088917;28;20224;-82
2021/11/15 00:40:34;;;;;;;36.60;22.83;;;;;;;6.08;81.93;100335.31;5081788;23;20221;-82
2021/11/15 00:43:01;;;;;;;32.60;22.07;;;;;;;6.08;81.97;100332.66;5069028;28;20314;-83
2021/11/15 00:45:29;;;;;;;33.87;21.90;;;;;;;6.08;82.36;100340.63;5034218;28;20225;-83
2021/11/15 00:48:02;;;;;;;34.43;21.73;;;;;;;6.16;81.99;100337.94;5069318;28;20740;-82
2021/11/15 00:50:30;;;;;;;34.33;22.03;;;;;;;6.15;82.20;100344.28;5035190;28;20234;-82
2021/11/15 00:52:57;;;;;;;35.67;22.93;;;;;;;6.16;82.42;100339.75;5068910;28;20624;-81
2021/11/15 00:55:24;;;;;;;34.60;22.40;;;;;;;6.08;81.62;100322.00;5097404;23;20228;-84
2021/11/15 00:57:53;;;;;;;36.50;23.27;;;;;;;6.13;82.31;100337.47;5092300;28;20231;-84
2021/11/15 01:00:26;;;;;;;33.47;22.53;;;;;;;6.16;82.33;100342.41;5108303;28;20241;-82
2021/11/15 01:02:59;;;;;;;31.57;21.67;;;;;;;6.17;82.56;100338.75;5109495;28;20307;-82
2021/11/15 01:05:28;;;;;;;33.13;21.83;;;;;;;6.14;82.55;100336.47;5108488;28;20231;-82
2021/11/15 01:08:00;;;;;;;35.53;22.37;;;;;;;6.14;82.21;100339.13;5106916;28;20240;-82
2021/11/15 01:10:28;;;;;;;33.47;22.90;;;;;;;6.11;81.62;100329.63;5106679;28;20239;-83
2021/11/15 01:13:00;;;;;;;37.20;22.93;;;;;;;6.13;82.29;100327.66;5108046;28;20215;-82
2021/11/15 01:15:29;;;;;;;36.10;23.93;;;;;;;6.11;81.60;100318.19;5109286;28;20246;-84
2021/11/15 01:18:05;;;;;;;35.10;22.93;;;;;;;6.10;81.92;100329.84;5091189;28;20289;-82
2021/11/15 01:20:35;;;;;;;33.83;21.90;;;;;;;6.13;82.04;100334.78;5091606;28;20207;-83
2021/11/15 01:23:05;;;;;;;32.03;21.30;;;;;;;6.18;81.46;100340.44;5092199;28;20315;-82
2021/11/15 01:25:34;;;;;;;32.17;21.60;;;;;;;6.04;81.72;100309.22;5110523;28;20184;-82
2021/11/15 01:28:02;;;;;;;32.87;22.13;;;;;;;6.15;81.99;100333.63;5110693;28;20560;-82
2021/11/15 01:30:29;;;;;;;36.90;22.57;;;;;;;6.19;82.17;100336.78;5108878;28;20235;-82
2021/11/15 01:32:57;;;;;;;35.00;22.10;;;;;;;6.17;82.56;100333.44;5107579;28;20223;-82
2021/11/15 01:35:25;;;;;;;34.33;21.57;;;;;;;6.17;82.43;100336.94;5109567;28;20220;-82
2021/11/15 01:37:53;;;;;;;33.50;22.13;;;;;;;6.19;82.53;100334.94;5106800;28;20304;-82
2021/11/15 01:40:24;;;;;;;36.33;21.90;;;;;;;6.19;82.89;100336.78;5089099;28;20230;-83
2021/11/15 01:42:54;;;;;;;32.33;21.80;;;;;;;6.16;81.89;100332.59;5092373;28;20208;-82
2021/11/15 01:45:25;;;;;;;34.13;21.70;;;;;;;6.17;82.81;100320.97;5109580;28;20232;-80
2021/11/15 01:47:55;;;;;;;34.30;21.60;;;;;;;6.15;82.55;100330.16;5110210;28;20199;-83
2021/11/15 01:50:26;;;;;;;33.00;21.70;;;;;;;6.18;82.67;100327.97;5108331;28;20266;-82
2021/11/15 01:52:57;;;;;;;31.67;21.17;;;;;;;6.20;82.00;100325.94;5100186;23;20576;-82
2021/11/15 01:55:28;;;;;;;32.90;21.10;;;;;;;6.16;82.48;100313.97;5103703;28;20244;-82
2021/11/15 01:57:59;;;;;;;34.60;21.97;;;;;;;6.13;81.77;100316.16;5086774;28;20235;-82
2021/11/15 02:00:34;;;;;;;32.83;21.10;;;;;;;6.17;82.36;100328.94;5086480;28;20228;-81
2021/11/15 02:03:04;;;;;;;31.53;20.23;;;;;;;6.14;82.04;100323.16;5088939;28;20255;-81
2021/11/15 02:05:31;;;;;;;34.50;21.57;;;;;;;6.16;82.23;100329.94;5088259;28;20228;-84
2021/11/15 02:08:05;;;;;;;33.63;21.33;;;;;;;6.18;82.29;100332.44;5070192;28;20303;-81
2021/11/15 02:10:37;;;;;;;33.23;20.93;;;;;;;6.17;82.61;100320.13;5087459;28;20231;-81
2021/11/15 02:13:06;;;;;;;32.83;21.53;;;;;;;6.15;82.53;100323.00;5087975;28;20232;-80
2021/11/15 02:15:35;;;;;;;34.43;21.03;;;;;;;6.16;82.07;100323.78;5087203;28;20240;-81
2021/11/15 02:18:06;;;;;;;32.83;21.00;;;;;;;6.19;82.93;100313.66;5068868;28;20233;-82
2021/11/15 02:20:42;;;;;;;36.50;21.13;;;;;;;6.19;83.12;100313.66;5087481;28;20231;-82
2021/11/15 02:23:13;;;;;;;36.20;21.07;;;;;;;6.18;82.00;100311.16;5086873;28;20242;-81
2021/11/15 02:25:42;;;;;;;32.67;20.67;;;;;;;6.13;82.93;100310.84;5087403;28;20235;-83
2021/11/15 02:28:09;;;;;;;34.13;21.37;;;;;;;6.16;82.44;100321.13;5085345;28;20228;-82
2021/11/15 02:30:37;;;;;;;32.23;21.43;;;;;;;6.18;82.45;100322.63;5086488;28;20227;-81
2021/11/15 02:33:10;;;;;;;32.00;20.43;;;;;;;6.16;82.64;100323.78;5117941;23;20586;-81
2021/11/15 02:35:39;;;;;;;32.80;21.93;;;;;;;6.09;82.15;100309.53;5089329;28;20215;-81
2021/11/15 02:38:07;;;;;;;32.40;21.33;;;;;;;6.11;82.70;100316.34;5103995;28;20596;-81
2021/11/15 02:40:35;;;;;;;33.03;21.40;;;;;;;6.12;82.85;100309.19;5099136;22;20221;-84
2021/11/15 02:43:06;;;;;;;33.07;20.93;;;;;;;6.07;83.11;100317.69;5049089;28;20212;-82
2021/11/15 02:45:33;;;;;;;33.43;21.10;;;;;;;6.13;83.13;100322.31;5064004;28;20209;-81
2021/11/15 02:48:00;;;;;;;30.57;20.30;;;;;;;6.07;83.06;100307.06;5065299;28;20240;-82
2021/11/15 02:50:31;;;;;;;30.27;19.67;;;;;;;6.04;82.46;100291.44;5063419;28;20303;-83
2021/11/15 02:53:12;;;;;;;31.87;20.33;;;;;;;6.12;82.82;100314.50;5064764;28;20293;-82
2021/11/15 02:55:43;;;;;;;31.73;20.67;;;;;;;6.03;82.76;100289.78;5066254;28;20304;-82
2021/11/15 02:58:12;;;;;;;32.80;20.10;;;;;;;6.16;82.60;100316.66;5046916;28;20233;-82
2021/11/15 03:00:43;;;;;;;31.07;20.97;;;;;;;6.18;82.24;100312.00;5048275;28;20229;-82
2021/11/15 03:03:14;;;;;;;32.67;21.03;;;;;;;6.17;82.89;100313.00;5065542;28;20665;-81
2021/11/15 03:05:48;;;;;;;30.20;20.73;;;;;;;6.19;82.19;100312.81;5066656;28;20237;-81
2021/11/15 03:08:20;;;;;;;30.10;20.10;;;;;;;6.04;82.73;100294.09;5048630;28;20217;-81
2021/11/15 03:10:48;;;;;;;29.50;19.97;;;;;;;6.10;82.58;100304.06;5063370;28;20228;-81
2021/11/15 03:13:28;;;;;;;33.47;21.00;;;;;;;6.18;82.52;100316.47;5066598;28;20225;-81
2021/11/15 03:16:00;;;;;;;28.80;19.00;;;;;;;6.19;82.78;100318.97;5064791;28;20669;-81
2021/11/15 03:18:33;;;;;;;31.73;20.73;;;;;;;6.14;82.87;100310.69;5064160;28;20244;-82
2021/11/15 03:21:10;;;;;;;29.80;20.50;;;;;;;6.14;82.72;100321.31;5046101;28;20233;-81
2021/11/15 03:23:42;;;;;;;27.93;19.53;;;;;;;6.10;83.12;100324.50;5032571;28;20209;-81
2021/11/15 03:26:12;;;;;;;29.83;20.07;;;;;;;6.10;82.55;100328.00;5065293;28;20225;-82
2021/11/15 03:28:46;;;;;;;30.43;19.97;;;;;;;6.10;82.54;100328.00;5062975;28;20220;-81
2021/11/15 03:31:22;;;;;;;31.07;21.40;;;;;;;6.13;82.70;100337.47;5062907;28;20320;-82
2021/11/15 03:33:56;;;;;;;30.73;19.77;;;;;;;6.13;83.25;100329.47;5064902;28;20245;-81
2021/11/15 03:36:23;;;;;;;32.30;19.97;;;;;;;6.11;82.88;100334.16;5064823;28;20233;-81
2021/11/15 03:38:57;;;;;;;30.73;19.93;;;;;;;6.15;82.45;100333.63;5063520;28;20232;-81
2021/11/15 03:41:33;;;;;;;26.70;18.73;;;;;;;6.17;82.40;100344.91;5063480;28;20233;-81
2021/11/15 03:44:05;;;;;;;16.70;12.00;;;;;;;6.16;81.40;100345.06;5064757;28;20247;-80
2021/11/15 03:46:33;;;;;;;22.63;15.03;;;;;;;6.15;81.04;100341.63;5032997;28;20213;-81
2021/11/15 03:49:03;;;;;;;23.43;15.63;;;;;;;6.08;80.84;100339.81;5066831;28;20236;-81
2021/11/15 03:51:30;;;;;;;25.53;16.80;;;;;;;6.07;81.76;100336.31;5066363;28;20232;-83
2021/11/15 03:53:57;;;;;;;23.03;16.20;;;;;;;6.06;81.53;100337.34;5031948;28;20301;-84
2021/11/15 03:56:27;;;;;;;21.17;14.93;;;;;;;6.11;81.06;100336.81;5043485;28;20233;-82
2021/11/15 03:58:56;;;;;;;22.03;15.60;;;;;;;6.20;79.84;100338.44;5031406;28;20346;-81
2021/11/15 04:01:29;;;;;;;25.30;16.80;;;;;;;6.20;79.77;100331.25;5061764;28;20312;-80
2021/11/15 04:04:04;;;;;;;22.60;15.73;;;;;;;6.13;80.61;100337.47;5065880;28;20517;-82
2021/11/15 04:06:39;;;;;;;22.27;16.37;;;;;;;5.95;80.86;100312.94;5066690;28;20232;-82
2021/11/15 04:09:10;;;;;;;22.33;15.73;;;;;;;5.92;80.84;100322.09;5066125;28;20636;-81
2021/11/15 04:11:39;;;;;;;21.67;16.40;;;;;;;5.90;80.28;100317.94;5065191;28;20233;-81
2021/11/15 04:14:11;;;;;;;21.00;15.33;;;;;;;6.08;79.37;100334.47;5064503;28;20628;-81
2021/11/15 04:16:46;;;;;;;22.80;16.63;;;;;;;6.06;79.41;100339.16;5066039;28;20252;-82
2021/11/15 04:19:19;;;;;;;22.43;16.83;;;;;;;6.02;80.69;100345.84;5064012;28;20222;-81
2021/11/15 04:21:51;;;;;;;24.83;17.60;;;;;;;5.99;80.29;100346.16;5064793;28;20192;-81
2021/11/15 04:24:18;;;;;;;23.07;17.13;;;;;;;5.94;80.78;100336.03;5048355;28;20316;-82
2021/11/15 04:26:47;;;;;;;22.40;17.40;;;;;;;6.04;80.94;100354.47;5068278;28;20209;-81
2021/11/15 04:29:18;;;;;;;21.97;15.97;;;;;;;6.09;79.93;100350.28;5069820;28;20225;-82
2021/11/15 04:31:46;;;;;;;22.67;16.53;;;;;;;6.02;79.71;100343.19;5069421;28;20229;-82
2021/11/15 04:34:14;;;;;;;23.33;16.83;;;;;;;6.07;80.96;100346.94;5067358;28;20233;-83
2021/11/15 04:36:44;;;;;;;22.17;16.50;;;;;;;6.03;80.34;100334.19;5081263;23;20231;-81
2021/11/15 04:39:13;;;;;;;24.50;16.50;;;;;;;6.05;80.50;100345.47;5088693;28;20584;-81
2021/11/15 04:41:47;;;;;;;23.77;16.87;;;;;;;5.99;80.34;100343.50;5089349;28;20211;-82
2021/11/15 04:44:14;;;;;;;23.03;16.97;;;;;;;5.98;80.78;100344.50;5089248;28;20255;-82
2021/11/15 04:46:43;;;;;;;23.33;16.47;;;;;;;6.06;80.63;100349.81;5087986;28;20225;-82
2021/11/15 04:49:19;;;;;;;22.53;16.63;;;;;;;6.06;80.63;100337.34;5087630;28;20600;-81
2021/11/15 04:51:47;;;;;;;19.47;14.37;;;;;;;6.16;78.98;100337.09;5089671;28;20224;-83
2021/11/15 04:54:23;;;;;;;19.50;15.47;;;;;;;6.15;79.64;100341.63;5086857;22;20225;-81
2021/11/15 04:56:50;;;;;;;21.20;16.77;;;;;;;6.10;79.93;100340.47;5083634;22;20227;-82
2021/11/15 04:59:39;;;;;;;21.83;16.23;;;;;;;6.09;79.99;100336.16;5032045;28;20212;-81
2021/11/15 05:02:07;;;;;;;22.50;16.60;;;;;;;6.07;79.96;100335.47;5047605;28;20225;-81
2021/11/15 05:04:34;;;;;;;22.53;16.00;;;;;;;6.09;79.16;100334.31;5048201;28;20233;-81
2021/11/15 05:07:03;;;;;;;22.77;16.93;;;;;;;6.16;78.84;100353.91;5047332;28;20233;-82
2021/11/15 05:09:35;;;;;;;24.50;17.70;;;;;;;6.11;79.58;100353.59;5092451;23;20597;-81
2021/11/15 05:12:12;;;;;;;21.43;16.40;;;;;;;6.09;79.81;100352.09;5087564;28;20326;-81
2021/11/15 05:14:40;;;;;;;24.73;16.97;;;;;;;6.08;80.30;100337.16;5108191;28;20276;-81
2021/11/15 05:17:07;;;;;;;23.37;16.47;;;;;;;6.06;80.24;100342.66;5108280;28;20699;-81
2021/11/15 05:19:34;;;;;;;23.33;16.93;;;;;;;6.05;81.09;100353.47;5106038;28;20227;-80
2021/11/15 05:22:05;;;;;;;23.83;17.77;;;;;;;6.13;80.61;100348.94;5104380;28;20300;-82
2021/11/15 05:24:31;;;;;;;24.27;17.83;;;;;;;6.17;81.01;100350.25;5103408;23;20533;-82
2021/11/15 05:27:01;;;;;;;22.27;16.77;;;;;;;6.12;80.25;100343.78;5070851;28;20573;-81
2021/11/15 05:29:30;;;;;;;24.13;18.07;;;;;;;6.10;80.45;100349.28;5070913;28;20212;-82
2021/11/15 05:31:57;;;;;;;26.00;18.90;;;;;;;6.03;80.98;100337.66;5087366;28;20237;-81
2021/11/15 05:34:24;;;;;;;23.93;17.70;;;;;;;6.08;80.29;100343.28;5084598;28;20228;-81
2021/11/15 05:36:51;;;;;;;24.03;17.37;;;;;;;6.13;79.59;100337.47;5051838;28;20228;-82
2021/11/15 05:39:20;;;;;;;26.43;17.73;;;;;;;6.19;80.20;100348.25;5068167;28;20227;-82
2021/11/15 05:41:48;;;;;;;27.17;19.13;;;;;;;6.23;79.57;100355.88;5068090;28;20274;-81
2021/11/15 05:44:16;;;;;;;25.80;18.70;;;;;;;6.08;79.95;100345.97;5085455;28;20239;-82
2021/11/15 05:46:44;;;;;;;27.00;19.50;;;;;;;6.19;79.95;100363.38;5050252;28;20283;-81
2021/11/15 05:49:11;;;;;;;28.03;19.80;;;;;;;6.12;80.30;100362.41;5066608;28;20235;-81
2021/11/15 05:51:39;;;;;;;28.50;19.90;;;;;;;6.08;80.64;100356.59;5064353;28;20224;-82
2021/11/15 05:54:07;;;;;;;28.43;20.37;;;;;;;5.99;81.11;100360.31;5045712;28;20232;-82
2021/11/15 05:56:38;;;;;;;29.57;20.93;;;;;;;6.03;81.20;100371.41;5070734;28;20224;-81
2021/11/15 05:59:10;;;;;;;29.40;21.03;;;;;;;6.01;81.23;100374.28;5057330;28;20205;-82
2021/11/15 06:01:39;;;;;;;31.43;22.53;;;;;;;6.04;81.01;100363.28;5087136;28;20300;-82
2021/11/15 06:04:09;;;;;;;31.00;21.37;;;;;;;6.07;80.00;100365.56;5052701;28;20221;-82
2021/11/15 06:06:39;;;;;;;30.87;21.47;;;;;;;6.14;80.27;100384.34;5066092;28;20204;-81
2021/11/15 06:09:08;;;;;;;30.67;20.73;;;;;;;6.22;79.82;100384.31;5072045;28;20642;-81
2021/11/15 06:11:38;;;;;;;31.57;20.63;;;;;;;6.14;80.96;100381.69;5072795;28;20285;-82
2021/11/15 06:14:07;;;;;;;30.43;21.43;;;;;;;6.13;81.05;100393.31;5051551;28;20220;-81
2021/11/15 06:16:36;;;;;;;30.30;19.93;;;;;;;6.19;80.85;100393.47;5088863;28;21855;-82
2021/11/15 06:19:04;;;;;;;31.50;20.77;;;;;;;6.16;80.39;100391.16;5095104;22;20697;-81
2021/11/15 06:21:34;;;;;;;28.13;20.00;;;;;;;6.05;79.82;100383.56;5065900;28;20221;-81
2021/11/15 06:24:02;;;;;;;30.13;20.70;;;;;;;6.19;79.45;100382.00;5034104;28;20240;-81
2021/11/15 06:26:31;;;;;;;28.67;20.60;;;;;;;6.10;80.32;100385.69;5067089;28;20181;-82
2021/11/15 06:28:59;;;;;;;30.37;20.77;;;;;;;6.17;79.82;100384.00;5067412;28;20244;-81
2021/11/15 06:31:26;;;;;;;29.30;20.53;;;;;;;6.20;79.83;100391.66;5067581;28;20296;-82
2021/11/15 06:33:55;;;;;;;30.07;21.10;;;;;;;6.10;79.88;100389.19;5034027;28;20218;-81
2021/11/15 06:36:23;;;;;;;27.90;20.37;;;;;;;6.30;79.59;100397.56;5050682;28;20664;-81
2021/11/15 06:38:58;;;;;;;27.27;20.33;;;;;;;6.32;78.54;100397.41;5067925;28;20209;-81
2021/11/15 06:41:33;;;;;;;30.57;21.30;;;;;;;6.25;79.66;100402.59;5086412;22;20235;-81
2021/11/15 06:44:00;;;;;;;33.33;21.80;;;;;;;6.23;79.64;100399.28;5052786;28;20628;-81
2021/11/15 06:46:31;;;;;;;30.87;21.23;;;;;;;6.33;79.08;100410.56;5053925;28;20232;-81
2021/11/15 06:48:59;;;;;;;31.07;21.73;;;;;;;6.33;78.83;100391.91;5086508;28;20216;-81
2021/11/15 06:51:38;;;;;;;29.17;21.10;;;;;;;6.31;78.90;100401.06;5085443;28;20215;-81
2021/11/15 06:54:05;;;;;;;33.57;22.23;;;;;;;6.29;78.76;100409.25;5084213;28;20268;-81
2021/11/15 06:56:37;;;;;;;29.50;22.20;;;;;;;6.34;78.75;100406.06;5094662;22;20228;-81
2021/11/15 06:59:46;;;;;;;29.47;21.27;;;;;;;6.24;79.35;100395.63;5078073;28;20274;-81
2021/11/15 07:02:31;;;;;;;31.47;21.30;;;;;;;6.36;79.64;100406.69;5088982;28;20213;-81
2021/11/15 07:04:58;;;;;;;32.77;22.73;;;;;;;6.33;79.04;100412.38;5085914;28;20225;-81
2021/11/15 07:07:25;;;;;;;31.70;21.80;;;;;;;6.48;77.21;100410.66;5067391;28;20239;-82
2021/11/15 07:09:52;;;;;;;34.50;23.23;;;;;;;6.45;78.26;100405.66;5087241;28;20231;-82
2021/11/15 07:12:18;;;;;;;32.07;21.87;;;;;;;6.49;78.15;100397.16;5055390;28;20224;-83
2021/11/15 07:14:49;;;;;;;31.57;21.47;;;;;;;6.52;77.08;100409.28;5088230;28;20185;-81
2021/11/15 07:17:16;;;;;;;30.77;21.73;;;;;;;6.57;78.14;100414.94;5064459;28;20239;-82
2021/11/15 07:19:46;;;;;;;29.23;21.07;;;;;;;6.68;77.46;100422.50;5075655;28;20736;-82
2021/11/15 07:22:28;;;;;;;28.93;21.27;;;;;;;6.75;76.26;100425.31;5074355;28;20319;-82
2021/11/15 07:24:55;;;;;;;34.03;22.13;;;;;;;6.73;76.05;100416.66;5064305;28;20232;-82
2021/11/15 07:27:23;;;;;;;31.17;20.90;;;;;;;6.83;75.81;100420.75;5049059;28;20281;-81
2021/11/15 07:29:50;;;;;;;32.60;21.83;;;;;;;6.90;76.24;100435.03;5050861;28;20283;-81
2021/11/15 07:32:17;;;;;;;31.80;22.53;;;;;;;7.00;75.85;100432.13;5045308;28;20229;-84
2021/11/15 07:34:44;;;;;;;32.07;21.50;;;;;;;7.01;75.61;100429.28;5062392;28;20293;-82
2021/11/15 07:37:11;;;;;;;27.60;21.27;;;;;;;7.03;76.11;100431.78;5061851;28;20251;-83
2021/11/15 07:39:42;;;;;;;30.20;21.27;;;;;;;7.16;75.37;100423.19;5030087;28;20248;-84
2021/11/15 07:42:12;;;;;;;28.47;21.03;;;;;;;7.27;74.42;100433.44;5048033;28;20311;-83
2021/11/15 07:44:39;;;;;;;27.40;19.87;;;;;;;7.06;74.71;100437.56;5049773;28;20221;-83
2021/11/15 07:47:07;;;;;;;30.43;21.13;;;;;;;7.01;75.10;100436.44;5050670;28;20244;-80
2021/11/15 07:49:35;;;;;;;28.33;20.47;;;;;;;6.95;75.74;100427.31;5066707;28;20235;-83
2021/11/15 07:52:05;;;;;;;27.90;20.87;;;;;;;7.11;75.84;100444.22;5049420;28;20261;-81
2021/11/15 07:54:35;;;;;;;28.50;21.17;;;;;;;7.19;73.88;100438.81;5082935;28;20295;-81
2021/11/15 07:57:01;;;;;;;28.63;22.30;;;;;;;7.11;74.03;100420.22;5049798;28;20632;-81
2021/11/15 07:59:29;;;;;;;36.30;27.13;;;;;;;7.18;75.27;100432.69;5066639;28;20225;-84
2021/11/15 08:01:57;;;;;;;29.97;23.73;;;;;;;7.15;74.69;100433.00;5069727;28;20228;-83
2021/11/15 08:04:25;;;;;;;28.93;21.87;;;;;;;7.06;74.68;100431.41;5053860;28;20219;-82
2021/11/15 08:06:51;;;;;;;28.53;22.00;;;;;;;7.06;75.44;100439.41;5056391;28;20307;-81
2021/11/15 08:09:18;;;;;;;31.23;22.67;;;;;;;7.23;74.80;100443.59;5070180;28;20228;-81
2021/11/15 08:11:46;;;;;;;28.00;21.00;;;;;;;7.14;73.22;100439.34;5069045;28;20225;-81
2021/11/15 08:14:14;;;;;;;28.47;20.67;;;;;;;7.04;74.52;100439.63;5054287;28;20315;-82
2021/11/15 08:16:42;;;;;;;29.80;22.07;;;;;;;7.15;74.31;100445.50;5054273;28;20228;-81
2021/11/15 08:19:09;;;;;;;27.77;20.50;;;;;;;7.16;73.58;100445.34;5052740;28;20225;-82
2021/11/15 08:21:37;;;;;;;29.37;22.33;;;;;;;7.17;73.68;100433.69;5052564;28;20218;-83
2021/11/15 08:24:20;;;;;;;30.93;23.13;;;;;;;7.32;74.62;100447.06;5051993;28;20232;-82
2021/11/15 08:27:01;;;;;;;30.23;21.60;;;;;;;7.25;73.51;100435.44;5070107;28;20229;-81
2021/11/15 08:29:31;;;;;;;29.17;21.17;;;;;;;7.36;71.92;100430.53;5054046;28;20231;-81
2021/11/15 08:32:06;;;;;;;28.97;21.87;;;;;;;7.48;73.30;100445.09;5064999;28;20299;-82
2021/11/15 08:34:34;;;;;;;29.30;21.67;;;;;;;7.57;72.51;100445.84;5065792;28;20531;-81
2021/11/15 08:37:02;;;;;;;29.77;21.37;;;;;;;7.74;72.27;100452.69;5031939;28;20221;-82
2021/11/15 08:39:30;;;;;;;36.07;26.60;;;;;;;7.66;73.10;100450.09;5033572;28;20229;-83
2021/11/15 08:42:04;;;;;;;30.27;22.73;;;;;;;7.77;72.10;100451.50;5065831;28;20252;-83
2021/11/15 08:44:34;;;;;;;27.47;20.83;;;;;;;7.92;72.08;100450.50;5032569;28;20229;-81
2021/11/15 08:47:01;;;;;;;30.50;22.70;;;;;;;8.01;72.63;100447.75;5065684;28;20239;-81
2021/11/15 08:49:33;;;;;;;27.87;21.40;;;;;;;8.11;70.34;100459.00;5051049;28;20228;-84
2021/11/15 08:52:02;;;;;;;28.07;22.03;;;;;;;7.93;70.63;100438.00;5066612;28;20286;-83
2021/11/15 08:54:34;;;;;;;27.63;21.50;;;;;;;8.13;71.07;100444.44;5069439;28;20311;-84
2021/11/15 08:57:06;;;;;;;27.87;20.70;;;;;;;8.22;70.64;100456.66;5050502;28;20300;-82
2021/11/15 08:59:41;;;;;;;26.77;21.33;;;;;;;8.44;69.72;100452.28;5073980;28;20296;-83
2021/11/15 09:02:08;;;;;;;28.43;21.10;;;;;;;8.56;69.95;100466.00;5066679;28;20226;-84
2021/11/15 09:04:37;;;;;;;27.50;21.80;;;;;;;8.55;70.15;100462.47;5050543;28;20235;-81
2021/11/15 09:07:05;;;;;;;28.37;22.33;;;;;;;8.63;69.63;100467.72;5067041;28;20564;-82
2021/11/15 09:09:33;;;;;;;28.40;22.50;;;;;;;8.62;68.57;100460.75;5052243;28;20232;-81
2021/11/15 09:12:02;;;;;;;31.87;22.37;;;;;;;8.72;67.70;100471.97;5083379;28;20221;-83
2021/11/15 09:14:29;;;;;;;29.03;23.10;;;;;;;8.55;68.52;100464.31;5066618;28;20252;-81
2021/11/15 09:16:56;;;;;;;34.57;23.70;;;;;;;8.53;68.63;100453.84;5083991;28;20305;-81
2021/11/15 09:19:23;;;;;;;33.20;22.90;;;;;;;8.60;67.42;100448.56;5067019;28;20244;-81
2021/11/15 09:21:51;;;;;;;29.50;22.20;;;;;;;8.73;68.77;100467.44;5050343;28;20539;-83
2021/11/15 09:24:18;;;;;;;31.80;22.77;;;;;;;8.81;68.43;100470.84;5048708;28;20230;-84
2021/11/15 09:26:45;;;;;;;28.17;22.00;;;;;;;8.93;68.72;100473.00;5064996;28;20229;-81
2021/11/15 09:29:13;;;;;;;27.50;21.23;;;;;;;8.92;67.75;100455.31;5065059;28;20228;-81
2021/11/15 09:31:41;;;;;;;29.07;22.00;;;;;;;9.18;67.06;100440.41;5065586;28;20294;-82
2021/11/15 09:34:08;;;;;;;27.90;21.97;;;;;;;9.30;66.80;100462.09;5066966;28;20290;-81
2021/11/15 09:36:36;;;;;;;27.80;22.30;;;;;;;9.45;67.06;100454.84;5067403;28;20629;-82
2021/11/15 09:39:05;;;;;;;28.93;22.57;;;;;;;9.71;65.81;100455.03;5047103;28;20282;-82
2021/11/15 09:41:37;;;;;;;28.97;22.63;;;;;;;9.78;65.70;100451.59;5051119;28;20225;-79
2021/11/15 09:44:05;;;;;;;27.13;22.47;;;;;;;9.76;64.99;100451.78;5065216;28;20263;-79
2021/11/15 09:46:32;;;;;;;28.27;22.70;;;;;;;9.85;64.43;100450.63;5060920;28;20324;-79
2021/11/15 09:49:04;;;;;;;27.57;21.57;;;;;;;9.94;62.93;100444.09;5069047;28;20250;-80
2021/11/15 09:51:34;;;;;;;32.13;23.53;;;;;;;9.83;63.71;100443.81;5066488;28;20252;-81
2021/11/15 09:54:03;;;;;;;31.77;23.77;;;;;;;9.95;64.09;100455.63;5050159;28;20527;-81
2021/11/15 09:56:31;;;;;;;27.87;22.13;;;;;;;9.98;64.01;100455.25;5049848;28;20535;-83
2021/11/15 09:58:57;;;;;;;27.53;22.73;;;;;;;9.85;64.53;100423.84;5083140;28;20231;-82
2021/11/15 10:01:24;;;;;;;28.70;22.27;;;;;;;9.81;64.39;100425.28;5067061;28;20228;-79
2021/11/15 10:03:51;;;;;;;26.23;21.50;;;;;;;9.69;64.82;100445.56;5068237;28;20225;-79
2021/11/15 10:06:21;;;;;;;27.47;22.17;;;;;;;9.80;64.58;100442.34;5049827;28;20225;-82
2021/11/15 10:08:50;;;;;;;28.43;21.73;;;;;;;9.81;65.26;100435.16;5063614;28;20222;-79
2021/11/15 10:11:20;;;;;;;25.60;21.63;;;;;;;9.82;64.96;100431.44;5052412;28;20278;-82
2021/11/15 10:13:47;;;;;;;31.10;23.43;;;;;;;9.90;64.52;100436.66;5067009;28;20620;-79
2021/11/15 10:16:23;;;;;;;28.03;22.80;;;;;;;10.11;64.61;100441.94;5049633;28;20280;-81
2021/11/15 10:19:02;;;;;;;26.53;22.23;;;;;;;10.22;64.61;100449.44;5067600;28;20224;-80
2021/11/15 10:21:32;;;;;;;28.10;22.73;;;;;;;10.45;64.14;100433.91;5083524;28;20220;-80
2021/11/15 10:24:12;;;;;;;26.57;22.30;;;;;;;10.48;63.53;100435.38;5069130;28;20251;-79
2021/11/15 10:26:54;;;;;;;27.17;22.30;;;;;;;10.60;63.58;100423.06;5050868;28;20243;-80
2021/11/15 10:29:38;;;;;;;32.27;23.27;;;;;;;10.71;62.52;100421.66;5036656;28;20235;-82
2021/11/15 10:32:06;;;;;;;29.17;21.97;;;;;;;10.58;62.43;100422.44;5084354;28;20213;-80
2021/11/15 10:34:37;;;;;;;32.93;24.47;;;;;;;10.38;62.95;100416.16;5050633;28;20257;-81
2021/11/15 10:37:16;;;;;;;28.47;21.80;;;;;;;10.15;63.60;100417.28;5050157;28;20231;-83
2021/11/15 10:39:53;;;;;;;31.23;23.67;;;;;;;10.33;63.72;100405.22;5068679;28;20244;-82
2021/11/15 10:42:27;;;;;;;29.77;23.47;;;;;;;10.19;63.11;100411.53;5068417;28;20236;-81
2021/11/15 10:44:59;;;;;;;32.77;23.10;;;;;;;10.40;63.53;100411.44;5086759;28;20242;-82
2021/11/15 10:47:40;;;;;;;27.30;21.77;;;;;;;10.51;63.06;100402.81;5069376;28;20240;-83
2021/11/15 10:50:35;;;;;;;29.70;22.73;;;;;;;10.52;63.16;100399.94;5068141;28;20225;-83
2021/11/15 10:53:08;;;;;;;26.37;20.97;;;;;;;10.87;63.00;100399.84;5069107;28;20272;-83
2021/11/15 10:55:44;;;;;;;26.50;22.10;;;;;;;10.84;62.44;100394.88;5086920;28;20240;-84
2021/11/15 10:58:20;;;;;;;26.87;22.20;;;;;;;10.91;62.06;100401.09;5087071;28;20239;-81
2021/11/15 11:01:02;;;;;;;29.10;23.10;;;;;;;11.02;62.33;100406.69;5086489;28;20247;-80
2021/11/15 11:03:47;;;;;;;26.33;21.87;;;;;;;11.27;60.77;100400.72;5072773;28;20235;-79
2021/11/15 11:06:16;;;;;;;32.83;22.53;;;;;;;11.08;60.19;100382.75;5069013;28;20235;-80
2021/11/15 11:09:01;;;;;;;30.00;23.30;;;;;;;10.87;61.40;100394.50;5072957;28;20233;-83
2021/11/15 11:11:37;;;;;;;29.77;22.77;;;;;;;10.96;61.15;100404.00;5087716;28;20248;-82
2021/11/15 11:14:21;;;;;;;29.50;23.37;;;;;;;10.71;61.75;100376.09;5071370;28;20245;-81
2021/11/15 11:16:53;;;;;;;31.30;22.50;;;;;;;10.65;62.02;100372.34;5052597;28;20230;-83
2021/11/15 11:24:46;;;;;;;29.07;22.67;;;;;;;10.48;62.77;100379.13;5069460;28;20258;-81
2021/11/15 11:27:16;;;;;;;46.57;25.77;;;;;;;10.20;64.08;100379.22;5071458;28;20225;-83
2021/11/15 11:29:50;;;;;;;27.53;22.37;;;;;;;10.33;63.98;100386.47;5052793;28;20229;-82
2021/11/15 11:32:23;;;;;;;26.73;21.90;;;;;;;10.41;64.47;100387.13;5087692;28;20227;-83
2021/11/15 11:34:50;;;;;;;31.60;21.60;;;;;;;10.41;64.41;100371.03;5089506;28;20262;-80
2021/11/15 11:37:23;;;;;;;32.07;22.83;;;;;;;10.35;65.32;100385.25;5074983;28;20229;-81